Terminal Aerodrome Forecast
Issued by NWS

Home | Current Version | Previous Version | Text Only | Print | Product List | Glossary On
Versions: 1 2 3 4 5 6 7 8 9 10 11 12 13
000
FTPA31 PHFO 302300
TAFJHM
TAF
PHJH 302321Z 3100/3124 04018G25KT P6SM FEW035 SCT050
     FM310500 04015KT P6SM FEW035 SCT050
     FM311800 05018G25KT P6SM FEW035 SCT050
      AMD NOT SKED AFT 310400=

USA.gov is the U.S. government's official web portal to all federal, state and local government web resources and services.